createdAt,value
2018-12-08T00:05:08.366Z,66.50
2018-12-08T00:10:36.466Z,66.80
2018-12-08T00:16:04.667Z,66.50
2018-12-08T00:21:32.806Z,66.60
2018-12-08T00:27:00.902Z,66.30
2018-12-08T00:32:29.023Z,65.60
2018-12-08T00:37:57.182Z,65.20
2018-12-08T00:43:25.340Z,65.40
2018-12-08T00:48:53.460Z,65.20
2018-12-08T00:54:21.629Z,65.80
2018-12-08T00:59:50.873Z,67.20
2018-12-08T01:05:18.938Z,67.80
2018-12-08T01:10:47.015Z,67.50
2018-12-08T01:16:15.093Z,67.00
2018-12-08T01:21:43.218Z,67.00
2018-12-08T01:27:11.648Z,66.90
2018-12-08T01:32:39.844Z,66.60
2018-12-08T01:38:08.087Z,66.30
2018-12-08T01:43:36.243Z,66.20
2018-12-08T01:49:04.559Z,66.50
2018-12-08T01:54:32.692Z,66.70
2018-12-08T02:00:00.763Z,67.10
2018-12-08T02:05:28.859Z,66.80
2018-12-08T02:10:56.991Z,66.80
2018-12-08T02:16:25.093Z,66.80
2018-12-08T02:21:53.230Z,66.70
2018-12-08T02:27:21.385Z,67.30
2018-12-08T02:32:49.479Z,68.00
2018-12-08T02:38:17.651Z,68.20
2018-12-08T02:43:45.739Z,67.10
2018-12-08T02:49:16.468Z,65.90
2018-12-08T02:54:44.563Z,64.70
2018-12-08T03:00:12.723Z,64.20
2018-12-08T03:05:40.843Z,64.40
2018-12-08T03:11:09.046Z,65.10
2018-12-08T03:16:37.138Z,65.90
2018-12-08T03:22:05.212Z,66.20
2018-12-08T03:27:33.368Z,66.40
2018-12-08T03:33:01.450Z,66.60
2018-12-08T03:38:29.537Z,66.70
2018-12-08T03:43:57.649Z,67.20
2018-12-08T03:49:26.027Z,67.60
2018-12-08T03:54:54.196Z,68.00
2018-12-08T04:00:22.320Z,68.30
2018-12-08T04:05:50.753Z,68.30
2018-12-08T04:11:18.828Z,68.70
2018-12-08T04:16:47.060Z,68.70
2018-12-08T04:22:15.177Z,68.90
2018-12-08T04:27:43.279Z,69.90
2018-12-08T04:33:11.404Z,70.40
2018-12-08T04:38:39.495Z,70.40
2018-12-08T04:44:07.580Z,70.00
2018-12-08T04:49:35.977Z,69.30
2018-12-08T04:55:04.568Z,68.60
2018-12-08T05:00:32.684Z,68.30
2018-12-08T05:06:00.949Z,67.70
2018-12-08T05:11:29.311Z,67.50
2018-12-08T05:16:57.612Z,67.60
2018-12-08T05:22:25.956Z,67.50
2018-12-08T05:27:54.217Z,67.50
2018-12-08T05:33:22.318Z,67.30
2018-12-08T05:38:50.454Z,66.70
2018-12-08T05:44:18.610Z,66.60
2018-12-08T05:49:46.712Z,66.30
2018-12-08T05:55:14.832Z,65.80
2018-12-08T06:00:42.987Z,65.70
2018-12-08T06:06:11.363Z,65.20
2018-12-08T06:11:39.498Z,64.70
2018-12-08T06:17:07.568Z,64.50
2018-12-08T06:22:35.661Z,64.60
2018-12-08T06:28:08.409Z,64.70
2018-12-08T06:33:36.479Z,64.60
2018-12-08T06:39:05.654Z,64.70
2018-12-08T06:44:33.757Z,64.80
2018-12-08T06:50:01.862Z,64.90
2018-12-08T06:55:29.947Z,65.70
2018-12-08T07:00:58.044Z,65.20
2018-12-08T07:06:26.249Z,65.20
2018-12-08T07:11:54.346Z,65.20
2018-12-08T07:17:22.474Z,65.10
2018-12-08T07:22:50.752Z,64.80
2018-12-08T07:28:18.863Z,64.40
2018-12-08T07:33:46.953Z,64.20
2018-12-08T07:39:15.052Z,64.00
2018-12-08T07:44:43.253Z,63.70
2018-12-08T07:50:11.921Z,63.30
2018-12-08T07:55:40.024Z,63.70
2018-12-08T08:01:08.101Z,62.40
2018-12-08T08:06:37.136Z,62.10
2018-12-08T08:12:05.243Z,61.90
2018-12-08T08:17:33.511Z,61.70
2018-12-08T08:23:03.705Z,61.50
2018-12-08T08:28:31.908Z,62.20
2018-12-08T08:34:00.003Z,61.00
2018-12-08T08:39:28.104Z,61.50
2018-12-08T08:44:57.326Z,60.80
2018-12-08T08:50:25.480Z,60.60
2018-12-08T08:55:53.641Z,60.70
2018-12-08T09:01:22.904Z,60.70
2018-12-08T09:06:52.922Z,60.10
2018-12-08T09:12:21.307Z,60.00
2018-12-08T09:17:50.534Z,60.00
2018-12-08T09:23:18.642Z,59.60
2018-12-08T09:28:47.056Z,58.80
2018-12-08T09:34:15.191Z,58.90
2018-12-08T09:39:50.291Z,58.40
2018-12-08T09:45:19.680Z,58.20
2018-12-08T09:50:47.820Z,57.90
2018-12-08T09:56:15.915Z,57.60
2018-12-08T10:01:44.282Z,57.20
2018-12-08T10:07:12.815Z,57.30
2018-12-08T10:12:42.344Z,57.20
2018-12-08T10:18:10.843Z,56.50
2018-12-08T10:23:40.199Z,56.20
2018-12-08T10:29:12.197Z,55.50
2018-12-08T10:34:41.308Z,55.50
2018-12-08T10:40:11.695Z,55.60
2018-12-08T10:45:40.161Z,55.20
2018-12-08T10:51:08.389Z,54.20
2018-12-08T10:56:36.956Z,54.20
2018-12-08T11:02:07.228Z,53.90
2018-12-08T11:07:42.632Z,53.80
2018-12-08T11:13:11.814Z,53.90
2018-12-08T11:18:39.978Z,54.10
2018-12-08T11:24:08.205Z,53.90
2018-12-08T11:29:36.442Z,53.30
2018-12-08T11:35:04.782Z,53.60
2018-12-08T11:40:36.949Z,53.30
2018-12-08T11:46:14.336Z,53.60
2018-12-08T11:51:50.932Z,53.90
2018-12-08T11:57:28.830Z,52.80
2018-12-08T12:02:58.617Z,52.30
2018-12-08T12:08:26.961Z,52.50
2018-12-08T12:13:55.152Z,52.50
2018-12-08T12:19:23.259Z,52.50
2018-12-08T12:24:51.512Z,52.50
2018-12-08T12:30:19.748Z,52.10
2018-12-08T12:35:47.946Z,52.00
2018-12-08T12:41:16.048Z,52.30
2018-12-08T12:46:54.680Z,52.20
2018-12-08T12:52:33.513Z,52.50
2018-12-08T12:58:02.909Z,52.60
2018-12-08T13:03:31.029Z,52.50
2018-12-08T13:09:07.657Z,53.00
2018-12-08T13:14:43.635Z,53.10
2018-12-08T13:20:12.859Z,53.30
2018-12-08T13:25:44.797Z,53.50
2018-12-08T13:31:14.113Z,53.70
2018-12-08T13:36:43.244Z,53.70
2018-12-08T13:42:11.463Z,53.80
2018-12-08T13:47:39.660Z,53.80
2018-12-08T13:53:07.916Z,53.20
2018-12-08T13:58:36.103Z,51.50
2018-12-08T14:04:08.438Z,52.80
2018-12-08T14:09:36.983Z,53.50
2018-12-08T14:15:06.089Z,53.90
2018-12-08T14:20:35.935Z,54.20
2018-12-08T14:26:07.761Z,54.10
2018-12-08T14:31:36.872Z,54.50
2018-12-08T14:37:05.047Z,54.60
2018-12-08T14:42:33.672Z,55.00
2018-12-08T14:48:01.757Z,55.50
2018-12-08T14:53:29.852Z,56.10
2018-12-08T14:58:58.513Z,56.70
2018-12-08T15:04:26.879Z,57.10
2018-12-08T15:09:55.041Z,57.40
2018-12-08T15:15:23.150Z,57.90
2018-12-08T15:20:51.240Z,58.30
2018-12-08T15:26:19.351Z,59.30
2018-12-08T15:31:47.451Z,59.10
2018-12-08T15:37:15.647Z,59.20
2018-12-08T15:42:43.803Z,59.30
2018-12-08T15:48:11.952Z,59.90
2018-12-08T15:53:40.225Z,59.30
2018-12-08T15:59:08.456Z,59.40
2018-12-08T16:04:36.866Z,59.50
2018-12-08T16:10:08.427Z,59.70
2018-12-08T16:15:36.684Z,60.00
2018-12-08T16:21:04.846Z,60.30
2018-12-08T16:26:32.983Z,60.50
2018-12-08T16:32:01.078Z,60.70
2018-12-08T16:37:29.263Z,60.70
2018-12-08T16:42:57.749Z,60.80
2018-12-08T16:48:25.849Z,60.90
2018-12-08T16:53:53.948Z,60.80
2018-12-08T16:59:22.236Z,60.90
2018-12-08T17:04:50.661Z,61.10
2018-12-08T17:10:18.915Z,61.10
2018-12-08T17:15:47.040Z,61.30
2018-12-08T17:21:15.591Z,61.60
2018-12-08T17:26:43.672Z,61.80
2018-12-08T17:32:12.043Z,63.10
2018-12-08T17:37:40.366Z,62.60
2018-12-08T17:43:08.607Z,63.00
2018-12-08T17:48:36.787Z,63.10
2018-12-08T17:54:04.911Z,63.20
2018-12-08T17:59:33.059Z,63.20
2018-12-08T18:05:01.715Z,63.20
2018-12-08T18:10:29.904Z,63.10
2018-12-08T18:15:57.990Z,62.90
2018-12-08T18:21:26.403Z,62.80
2018-12-08T18:26:54.882Z,62.50
2018-12-08T18:32:22.978Z,62.30
2018-12-08T18:37:51.068Z,62.30
2018-12-08T18:43:19.224Z,62.10
2018-12-08T18:48:47.312Z,62.10
2018-12-08T18:54:15.439Z,61.90
2018-12-08T18:59:43.564Z,61.60
2018-12-08T19:05:12.193Z,61.50
2018-12-08T19:10:40.389Z,61.10
2018-12-08T19:16:08.829Z,60.90
2018-12-08T19:21:37.096Z,60.40
2018-12-08T19:27:06.158Z,60.20
2018-12-08T19:32:34.700Z,60.00
2018-12-08T19:38:02.787Z,59.80
2018-12-08T19:43:31.136Z,59.70
2018-12-08T19:49:00.964Z,59.30
2018-12-08T19:54:29.462Z,59.20
2018-12-08T19:59:57.657Z,59.30
2018-12-08T20:05:25.866Z,59.20
2018-12-08T20:10:54.307Z,59.00
2018-12-08T20:16:23.187Z,58.90
2018-12-08T20:21:51.735Z,58.80
2018-12-08T20:27:20.647Z,58.70
2018-12-08T20:32:49.003Z,58.80
2018-12-08T20:38:17.079Z,58.70
2018-12-08T20:43:45.245Z,58.60
2018-12-08T20:49:14.465Z,58.60
2018-12-08T20:54:42.891Z,58.40
2018-12-08T21:00:11.197Z,58.40
2018-12-08T21:05:39.523Z,58.30
2018-12-08T21:11:07.810Z,58.30
2018-12-08T21:16:36.484Z,58.20
2018-12-08T21:22:04.589Z,58.30
2018-12-08T21:27:32.731Z,58.40
2018-12-08T21:33:00.904Z,58.90
2018-12-08T21:38:29.095Z,59.10
2018-12-08T21:43:57.281Z,59.40
2018-12-08T21:49:25.434Z,59.40
2018-12-08T21:54:53.758Z,59.30
2018-12-08T22:00:21.914Z,59.30
2018-12-08T22:05:50.103Z,59.20
2018-12-08T22:11:18.319Z,59.30
2018-12-08T22:16:47.579Z,59.40
2018-12-08T22:22:15.935Z,59.50
2018-12-08T22:27:44.037Z,59.60
2018-12-08T22:33:12.153Z,59.70
2018-12-08T22:38:40.393Z,60.00
2018-12-08T22:44:08.549Z,61.00
2018-12-08T22:49:36.828Z,63.10
2018-12-08T22:55:05.228Z,63.60
2018-12-08T23:00:42.585Z,63.60
2018-12-08T23:06:10.688Z,63.70
2018-12-08T23:11:38.805Z,63.70
2018-12-08T23:17:06.955Z,63.90
2018-12-08T23:22:35.116Z,63.90
2018-12-08T23:28:03.195Z,64.00
2018-12-08T23:33:31.277Z,64.10
2018-12-08T23:38:59.373Z,64.20
2018-12-08T23:44:27.460Z,64.30
2018-12-08T23:49:55.686Z,64.50
2018-12-08T23:55:23.896Z,64.30
